sensor_id;sensor_type;location;lat;lon;timestamp;temperature;humidity
5802;DHT22;2927;49.366;8.530;2022-12-18T00:01:03;-7.30;99.90
5802;DHT22;2927;49.366;8.530;2022-12-18T00:03:34;-7.20;99.90
5802;DHT22;2927;49.366;8.530;2022-12-18T00:05:59;-7.10;99.90
5802;DHT22;2927;49.366;8.530;2022-12-18T00:08:25;-7.10;99.90
5802;DHT22;2927;49.366;8.530;2022-12-18T00:10:51;-7.30;99.90
5802;DHT22;2927;49.366;8.530;2022-12-18T00:13:16;-7.30;99.90
5802;DHT22;2927;49.366;8.530;2022-12-18T00:15:42;-7.30;99.90
5802;DHT22;2927;49.366;8.530;2022-12-18T00:18:07;-7.30;99.90
5802;DHT22;2927;49.366;8.530;2022-12-18T00:20:37;-7.30;99.90
5802;DHT22;2927;49.366;8.530;2022-12-18T00:23:04;-7.30;99.90
5802;DHT22;2927;49.366;8.530;2022-12-18T00:25:31;-7.30;99.90
5802;DHT22;2927;49.366;8.530;2022-12-18T00:27:57;-7.20;99.90
5802;DHT22;2927;49.366;8.530;2022-12-18T00:30:23;-7.20;99.90
5802;DHT22;2927;49.366;8.530;2022-12-18T00:32:48;-7.10;99.90
5802;DHT22;2927;49.366;8.530;2022-12-18T00:35:14;-7.10;99.90
5802;DHT22;2927;49.366;8.530;2022-12-18T00:37:39;-7.00;99.90
5802;DHT22;2927;49.366;8.530;2022-12-18T00:40:05;-6.90;99.90
5802;DHT22;2927;49.366;8.530;2022-12-18T00:42:31;-6.90;99.90
5802;DHT22;2927;49.366;8.530;2022-12-18T00:45:15;-7.00;99.90
5802;DHT22;2927;49.366;8.530;2022-12-18T00:47:41;-7.20;99.90
5802;DHT22;2927;49.366;8.530;2022-12-18T00:50:07;-7.20;99.90
5802;DHT22;2927;49.366;8.530;2022-12-18T00:52:33;-7.10;99.90
5802;DHT22;2927;49.366;8.530;2022-12-18T00:54:58;-7.10;99.90
5802;DHT22;2927;49.366;8.530;2022-12-18T00:57:24;-7.00;99.90
5802;DHT22;2927;49.366;8.530;2022-12-18T00:59:49;-7.00;99.90
5802;DHT22;2927;49.366;8.530;2022-12-18T01:02:15;-7.20;99.90
5802;DHT22;2927;49.366;8.530;2022-12-18T01:04:40;-7.10;99.90
5802;DHT22;2927;49.366;8.530;2022-12-18T01:07:06;-7.10;99.90
5802;DHT22;2927;49.366;8.530;2022-12-18T01:09:31;-7.20;99.90
5802;DHT22;2927;49.366;8.530;2022-12-18T01:11:57;-7.30;99.90
5802;DHT22;2927;49.366;8.530;2022-12-18T01:14:22;-7.30;99.90
5802;DHT22;2927;49.366;8.530;2022-12-18T01:16:48;-7.20;99.90
5802;DHT22;2927;49.366;8.530;2022-12-18T01:19:13;-7.20;99.90
5802;DHT22;2927;49.366;8.530;2022-12-18T01:21:39;-7.00;99.90
5802;DHT22;2927;49.366;8.530;2022-12-18T01:24:04;-6.90;99.90
5802;DHT22;2927;49.366;8.530;2022-12-18T01:26:30;-7.00;99.90
5802;DHT22;2927;49.366;8.530;2022-12-18T01:28:56;-7.10;99.90
5802;DHT22;2927;49.366;8.530;2022-12-18T01:31:33;-7.10;99.90
5802;DHT22;2927;49.366;8.530;2022-12-18T01:34:01;-7.10;99.90
5802;DHT22;2927;49.366;8.530;2022-12-18T01:36:31;-7.10;99.90
5802;DHT22;2927;49.366;8.530;2022-12-18T01:39:00;-7.00;99.90
5802;DHT22;2927;49.366;8.530;2022-12-18T01:41:28;-7.10;99.90
5802;DHT22;2927;49.366;8.530;2022-12-18T01:50:00;-6.90;99.90
5802;DHT22;2927;49.366;8.530;2022-12-18T01:52:29;-7.00;99.90
5802;DHT22;2927;49.366;8.530;2022-12-18T01:54:56;-7.00;99.90
5802;DHT22;2927;49.366;8.530;2022-12-18T01:57:23;-6.90;99.90
5802;DHT22;2927;49.366;8.530;2022-12-18T01:59:52;-6.90;99.90
5802;DHT22;2927;49.366;8.530;2022-12-18T02:02:18;-6.80;99.90
5802;DHT22;2927;49.366;8.530;2022-12-18T02:04:44;-6.90;99.90
5802;DHT22;2927;49.366;8.530;2022-12-18T02:10:26;-7.00;99.90
5802;DHT22;2927;49.366;8.530;2022-12-18T02:15:39;-7.00;99.90
5802;DHT22;2927;49.366;8.530;2022-12-18T02:18:14;-7.10;99.90
5802;DHT22;2927;49.366;8.530;2022-12-18T02:20:55;-7.20;99.90
5802;DHT22;2927;49.366;8.530;2022-12-18T02:26:13;-7.30;99.90
5802;DHT22;2927;49.366;8.530;2022-12-18T02:28:51;-7.30;99.90
5802;DHT22;2927;49.366;8.530;2022-12-18T02:31:23;-7.30;99.90
5802;DHT22;2927;49.366;8.530;2022-12-18T02:33:50;-7.30;99.90
5802;DHT22;2927;49.366;8.530;2022-12-18T02:36:17;-7.40;99.90
5802;DHT22;2927;49.366;8.530;2022-12-18T02:38:44;-7.40;99.90
5802;DHT22;2927;49.366;8.530;2022-12-18T02:41:11;-7.50;99.90
5802;DHT22;2927;49.366;8.530;2022-12-18T02:43:38;-7.40;99.90
5802;DHT22;2927;49.366;8.530;2022-12-18T02:46:32;-7.40;99.90
5802;DHT22;2927;49.366;8.530;2022-12-18T02:49:08;-7.30;99.90
5802;DHT22;2927;49.366;8.530;2022-12-18T02:57:50;-7.70;99.90
5802;DHT22;2927;49.366;8.530;2022-12-18T03:00:30;-7.60;99.90
5802;DHT22;2927;49.366;8.530;2022-12-18T03:05:50;-7.50;99.90
5802;DHT22;2927;49.366;8.530;2022-12-18T03:08:23;-7.50;99.90
5802;DHT22;2927;49.366;8.530;2022-12-18T03:11:07;-7.40;99.90
5802;DHT22;2927;49.366;8.530;2022-12-18T03:13:40;-7.40;99.90
5802;DHT22;2927;49.366;8.530;2022-12-18T03:16:11;-7.60;99.90
5802;DHT22;2927;49.366;8.530;2022-12-18T03:18:42;-7.60;99.90
5802;DHT22;2927;49.366;8.530;2022-12-18T03:21:12;-7.60;99.90
5802;DHT22;2927;49.366;8.530;2022-12-18T03:23:47;-7.60;99.90
5802;DHT22;2927;49.366;8.530;2022-12-18T03:26:16;-7.70;99.90
5802;DHT22;2927;49.366;8.530;2022-12-18T03:28:47;-7.70;99.90
5802;DHT22;2927;49.366;8.530;2022-12-18T03:31:16;-7.60;99.90
5802;DHT22;2927;49.366;8.530;2022-12-18T03:33:55;-7.60;99.90
5802;DHT22;2927;49.366;8.530;2022-12-18T03:36:21;-7.60;99.90
5802;DHT22;2927;49.366;8.530;2022-12-18T03:38:48;-7.60;99.90
5802;DHT22;2927;49.366;8.530;2022-12-18T03:41:51;-7.50;99.90
5802;DHT22;2927;49.366;8.530;2022-12-18T03:47:29;-7.50;99.90
5802;DHT22;2927;49.366;8.530;2022-12-18T03:52:54;-7.40;99.90
5802;DHT22;2927;49.366;8.530;2022-12-18T03:55:23;-7.50;99.90
5802;DHT22;2927;49.366;8.530;2022-12-18T03:57:52;-7.40;99.90
5802;DHT22;2927;49.366;8.530;2022-12-18T04:00:19;-7.40;99.90
5802;DHT22;2927;49.366;8.530;2022-12-18T04:02:51;-7.50;99.90
5802;DHT22;2927;49.366;8.530;2022-12-18T04:05:20;-7.70;99.90
5802;DHT22;2927;49.366;8.530;2022-12-18T04:07:48;-7.70;99.90
5802;DHT22;2927;49.366;8.530;2022-12-18T04:10:16;-7.70;99.90
5802;DHT22;2927;49.366;8.530;2022-12-18T04:12:42;-7.50;99.90
5802;DHT22;2927;49.366;8.530;2022-12-18T04:15:08;-7.50;99.90
5802;DHT22;2927;49.366;8.530;2022-12-18T04:17:34;-7.50;99.90
5802;DHT22;2927;49.366;8.530;2022-12-18T04:20:00;-7.50;99.90
5802;DHT22;2927;49.366;8.530;2022-12-18T04:22:25;-7.50;99.90
5802;DHT22;2927;49.366;8.530;2022-12-18T04:24:51;-7.60;99.90
5802;DHT22;2927;49.366;8.530;2022-12-18T04:27:16;-7.50;99.90
5802;DHT22;2927;49.366;8.530;2022-12-18T04:29:42;-7.50;99.90
5802;DHT22;2927;49.366;8.530;2022-12-18T04:32:08;-7.50;99.90
5802;DHT22;2927;49.366;8.530;2022-12-18T04:34:33;-7.50;99.90
5802;DHT22;2927;49.366;8.530;2022-12-18T04:36:59;-7.50;99.90
5802;DHT22;2927;49.366;8.530;2022-12-18T04:39:24;-7.60;99.90
5802;DHT22;2927;49.366;8.530;2022-12-18T04:41:50;-7.60;99.90
5802;DHT22;2927;49.366;8.530;2022-12-18T04:44:16;-7.60;99.90
5802;DHT22;2927;49.366;8.530;2022-12-18T04:46:41;-7.80;99.90
5802;DHT22;2927;49.366;8.530;2022-12-18T04:49:07;-7.60;99.90
5802;DHT22;2927;49.366;8.530;2022-12-18T04:51:33;-7.60;99.90
5802;DHT22;2927;49.366;8.530;2022-12-18T04:53:58;-7.50;99.90
5802;DHT22;2927;49.366;8.530;2022-12-18T04:56:24;-7.50;99.90
5802;DHT22;2927;49.366;8.530;2022-12-18T04:58:49;-7.50;99.90
5802;DHT22;2927;49.366;8.530;2022-12-18T05:01:17;-7.50;99.90
5802;DHT22;2927;49.366;8.530;2022-12-18T05:03:43;-7.50;99.90
5802;DHT22;2927;49.366;8.530;2022-12-18T05:06:08;-7.60;99.90
5802;DHT22;2927;49.366;8.530;2022-12-18T05:08:34;-7.70;99.90
5802;DHT22;2927;49.366;8.530;2022-12-18T05:11:02;-7.70;99.90
5802;DHT22;2927;49.366;8.530;2022-12-18T05:13:28;-7.60;99.90
5802;DHT22;2927;49.366;8.530;2022-12-18T05:15:55;-7.50;99.90
5802;DHT22;2927;49.366;8.530;2022-12-18T05:18:21;-7.60;99.90
5802;DHT22;2927;49.366;8.530;2022-12-18T05:20:46;-7.60;99.90
5802;DHT22;2927;49.366;8.530;2022-12-18T05:23:12;-7.70;99.90
5802;DHT22;2927;49.366;8.530;2022-12-18T05:25:38;-7.70;99.90
5802;DHT22;2927;49.366;8.530;2022-12-18T05:28:04;-7.60;99.90
5802;DHT22;2927;49.366;8.530;2022-12-18T05:30:29;-7.60;99.90
5802;DHT22;2927;49.366;8.530;2022-12-18T05:32:55;-7.60;99.90
5802;DHT22;2927;49.366;8.530;2022-12-18T05:35:21;-7.60;99.90
5802;DHT22;2927;49.366;8.530;2022-12-18T05:37:46;-7.60;99.90
5802;DHT22;2927;49.366;8.530;2022-12-18T05:40:12;-7.70;99.90
5802;DHT22;2927;49.366;8.530;2022-12-18T05:42:38;-7.80;99.90
5802;DHT22;2927;49.366;8.530;2022-12-18T05:45:04;-7.90;99.90
5802;DHT22;2927;49.366;8.530;2022-12-18T05:47:30;-8.00;99.90
5802;DHT22;2927;49.366;8.530;2022-12-18T05:49:56;-8.00;99.90
5802;DHT22;2927;49.366;8.530;2022-12-18T05:52:22;-8.00;99.90
5802;DHT22;2927;49.366;8.530;2022-12-18T05:54:48;-8.10;99.90
5802;DHT22;2927;49.366;8.530;2022-12-18T05:57:13;-8.20;99.90
5802;DHT22;2927;49.366;8.530;2022-12-18T05:59:39;-8.30;99.90
5802;DHT22;2927;49.366;8.530;2022-12-18T06:02:04;-8.20;99.90
5802;DHT22;2927;49.366;8.530;2022-12-18T06:04:30;-8.20;99.90
5802;DHT22;2927;49.366;8.530;2022-12-18T06:06:55;-8.20;99.90
5802;DHT22;2927;49.366;8.530;2022-12-18T06:09:21;-8.20;99.90
5802;DHT22;2927;49.366;8.530;2022-12-18T06:11:46;-8.20;99.90
5802;DHT22;2927;49.366;8.530;2022-12-18T06:14:12;-8.20;99.90
5802;DHT22;2927;49.366;8.530;2022-12-18T06:16:37;-8.10;99.90
5802;DHT22;2927;49.366;8.530;2022-12-18T06:19:05;-8.10;99.90
5802;DHT22;2927;49.366;8.530;2022-12-18T06:21:31;-8.10;99.90
5802;DHT22;2927;49.366;8.530;2022-12-18T06:23:57;-8.00;99.90
5802;DHT22;2927;49.366;8.530;2022-12-18T06:26:22;-8.00;99.90
5802;DHT22;2927;49.366;8.530;2022-12-18T06:28:49;-8.00;99.90
5802;DHT22;2927;49.366;8.530;2022-12-18T06:31:14;-7.90;99.90
5802;DHT22;2927;49.366;8.530;2022-12-18T06:33:40;-7.90;99.90
5802;DHT22;2927;49.366;8.530;2022-12-18T06:36:12;-8.00;99.90
5802;DHT22;2927;49.366;8.530;2022-12-18T06:38:41;-8.00;99.90
5802;DHT22;2927;49.366;8.530;2022-12-18T06:41:08;-8.10;99.90
5802;DHT22;2927;49.366;8.530;2022-12-18T06:43:33;-8.20;99.90
5802;DHT22;2927;49.366;8.530;2022-12-18T06:46:00;-8.20;99.90
5802;DHT22;2927;49.366;8.530;2022-12-18T06:48:26;-8.30;99.90
5802;DHT22;2927;49.366;8.530;2022-12-18T06:50:51;-8.30;99.90
5802;DHT22;2927;49.366;8.530;2022-12-18T06:53:17;-8.30;99.90
5802;DHT22;2927;49.366;8.530;2022-12-18T06:55:43;-8.40;99.90
5802;DHT22;2927;49.366;8.530;2022-12-18T06:58:08;-8.30;99.90
5802;DHT22;2927;49.366;8.530;2022-12-18T07:00:34;-8.20;99.90
5802;DHT22;2927;49.366;8.530;2022-12-18T07:03:00;-8.20;99.90
5802;DHT22;2927;49.366;8.530;2022-12-18T07:05:25;-8.30;99.90
5802;DHT22;2927;49.366;8.530;2022-12-18T07:07:51;-8.20;99.90
5802;DHT22;2927;49.366;8.530;2022-12-18T07:10:17;-8.20;99.90
5802;DHT22;2927;49.366;8.530;2022-12-18T07:12:43;-8.20;99.90
5802;DHT22;2927;49.366;8.530;2022-12-18T07:15:09;-8.30;99.90
5802;DHT22;2927;49.366;8.530;2022-12-18T07:17:34;-8.30;99.90
5802;DHT22;2927;49.366;8.530;2022-12-18T07:20:00;-8.40;99.90
5802;DHT22;2927;49.366;8.530;2022-12-18T07:22:26;-8.30;99.90
5802;DHT22;2927;49.366;8.530;2022-12-18T07:24:52;-8.20;99.90
5802;DHT22;2927;49.366;8.530;2022-12-18T07:27:17;-8.20;99.90
5802;DHT22;2927;49.366;8.530;2022-12-18T07:29:43;-8.30;99.90
5802;DHT22;2927;49.366;8.530;2022-12-18T07:32:08;-8.30;99.90
5802;DHT22;2927;49.366;8.530;2022-12-18T07:34:34;-8.40;99.90
5802;DHT22;2927;49.366;8.530;2022-12-18T07:36:59;-8.40;99.90
5802;DHT22;2927;49.366;8.530;2022-12-18T07:39:25;-8.30;99.90
5802;DHT22;2927;49.366;8.530;2022-12-18T07:41:51;-8.40;99.90
5802;DHT22;2927;49.366;8.530;2022-12-18T07:44:35;-8.40;99.90
5802;DHT22;2927;49.366;8.530;2022-12-18T07:47:01;-8.40;99.90
5802;DHT22;2927;49.366;8.530;2022-12-18T07:49:27;-8.40;99.90
5802;DHT22;2927;49.366;8.530;2022-12-18T07:51:55;-8.40;99.90
5802;DHT22;2927;49.366;8.530;2022-12-18T07:54:20;-8.40;99.90
5802;DHT22;2927;49.366;8.530;2022-12-18T07:56:46;-8.30;99.90
5802;DHT22;2927;49.366;8.530;2022-12-18T07:59:11;-8.20;99.90
5802;DHT22;2927;49.366;8.530;2022-12-18T08:01:37;-8.20;99.90
5802;DHT22;2927;49.366;8.530;2022-12-18T08:04:02;-8.10;99.90
5802;DHT22;2927;49.366;8.530;2022-12-18T08:06:28;-8.10;99.90
5802;DHT22;2927;49.366;8.530;2022-12-18T08:08:54;-8.00;99.90
5802;DHT22;2927;49.366;8.530;2022-12-18T08:11:21;-7.90;99.90
5802;DHT22;2927;49.366;8.530;2022-12-18T08:13:47;-7.90;99.90
5802;DHT22;2927;49.366;8.530;2022-12-18T08:16:12;-7.90;99.90
5802;DHT22;2927;49.366;8.530;2022-12-18T08:18:38;-8.00;99.90
5802;DHT22;2927;49.366;8.530;2022-12-18T08:21:13;-7.90;99.90
5802;DHT22;2927;49.366;8.530;2022-12-18T08:23:40;-7.80;99.90
5802;DHT22;2927;49.366;8.530;2022-12-18T08:26:06;-7.80;99.90
5802;DHT22;2927;49.366;8.530;2022-12-18T08:28:32;-7.60;99.90
5802;DHT22;2927;49.366;8.530;2022-12-18T08:30:57;-7.50;99.90
5802;DHT22;2927;49.366;8.530;2022-12-18T08:33:23;-7.40;99.90
5802;DHT22;2927;49.366;8.530;2022-12-18T08:35:48;-7.20;99.90
5802;DHT22;2927;49.366;8.530;2022-12-18T08:38:14;-7.10;99.90
5802;DHT22;2927;49.366;8.530;2022-12-18T08:40:39;-6.90;99.90
5802;DHT22;2927;49.366;8.530;2022-12-18T08:43:05;-6.90;99.90
5802;DHT22;2927;49.366;8.530;2022-12-18T08:45:59;-6.60;99.90
5802;DHT22;2927;49.366;8.530;2022-12-18T08:48:25;-6.60;99.90
5802;DHT22;2927;49.366;8.530;2022-12-18T08:50:58;-6.50;99.90
5802;DHT22;2927;49.366;8.530;2022-12-18T08:53:23;-6.40;99.90
5802;DHT22;2927;49.366;8.530;2022-12-18T08:55:49;-6.20;99.90
5802;DHT22;2927;49.366;8.530;2022-12-18T08:58:15;-6.00;99.90
5802;DHT22;2927;49.366;8.530;2022-12-18T09:00:40;-6.00;99.90
5802;DHT22;2927;49.366;8.530;2022-12-18T09:03:14;-5.70;99.90
5802;DHT22;2927;49.366;8.530;2022-12-18T09:05:40;-5.30;99.90
5802;DHT22;2927;49.366;8.530;2022-12-18T09:08:05;-5.10;99.90
5802;DHT22;2927;49.366;8.530;2022-12-18T09:10:31;-4.90;99.90
5802;DHT22;2927;49.366;8.530;2022-12-18T09:12:57;-4.90;99.90
5802;DHT22;2927;49.366;8.530;2022-12-18T09:15:23;-4.80;99.90
5802;DHT22;2927;49.366;8.530;2022-12-18T09:17:48;-4.90;99.90
5802;DHT22;2927;49.366;8.530;2022-12-18T09:20:18;-5.00;99.90
5802;DHT22;2927;49.366;8.530;2022-12-18T09:22:44;-4.90;99.90
5802;DHT22;2927;49.366;8.530;2022-12-18T09:25:09;-4.70;99.90
5802;DHT22;2927;49.366;8.530;2022-12-18T09:27:35;-4.80;99.90
5802;DHT22;2927;49.366;8.530;2022-12-18T09:30:01;-4.80;99.90
5802;DHT22;2927;49.366;8.530;2022-12-18T09:32:27;-4.90;99.90
5802;DHT22;2927;49.366;8.530;2022-12-18T09:34:52;-4.80;99.90
5802;DHT22;2927;49.366;8.530;2022-12-18T09:37:18;-4.70;99.90
5802;DHT22;2927;49.366;8.530;2022-12-18T09:39:43;-4.80;99.20
5802;DHT22;2927;49.366;8.530;2022-12-18T09:42:21;-5.00;99.90
5802;DHT22;2927;49.366;8.530;2022-12-18T09:44:54;-5.00;99.90
5802;DHT22;2927;49.366;8.530;2022-12-18T09:47:30;-5.10;99.90
5802;DHT22;2927;49.366;8.530;2022-12-18T09:50:16;-5.10;99.90
5802;DHT22;2927;49.366;8.530;2022-12-18T09:52:48;-5.00;99.90
5802;DHT22;2927;49.366;8.530;2022-12-18T09:57:51;-5.00;99.90
5802;DHT22;2927;49.366;8.530;2022-12-18T10:00:24;-4.90;99.90
5802;DHT22;2927;49.366;8.530;2022-12-18T10:02:58;-4.90;99.90
5802;DHT22;2927;49.366;8.530;2022-12-18T10:05:57;-4.80;99.90
5802;DHT22;2927;49.366;8.530;2022-12-18T10:08:42;-4.80;99.90
5802;DHT22;2927;49.366;8.530;2022-12-18T10:11:32;-4.60;99.90
5802;DHT22;2927;49.366;8.530;2022-12-18T10:14:22;-4.30;99.70
5802;DHT22;2927;49.366;8.530;2022-12-18T10:19:46;-4.30;50.10
5802;DHT22;2927;49.366;8.530;2022-12-18T10:22:39;-4.20;40.50
5802;DHT22;2927;49.366;8.530;2022-12-18T10:27:41;-4.40;85.10
5802;DHT22;2927;49.366;8.530;2022-12-18T10:30:18;-4.40;84.00
5802;DHT22;2927;49.366;8.530;2022-12-18T10:32:44;-4.30;91.90
5802;DHT22;2927;49.366;8.530;2022-12-18T10:38:02;-3.90;95.10
5802;DHT22;2927;49.366;8.530;2022-12-18T10:40:28;-3.70;35.90
5802;DHT22;2927;49.366;8.530;2022-12-18T10:43:14;-3.70;12.20
5802;DHT22;2927;49.366;8.530;2022-12-18T10:45:40;-3.60;1.00
5802;DHT22;2927;49.366;8.530;2022-12-18T10:48:21;-3.50;1.00
5802;DHT22;2927;49.366;8.530;2022-12-18T10:50:50;-3.40;1.00
5802;DHT22;2927;49.366;8.530;2022-12-18T10:53:29;-3.40;1.00
5802;DHT22;2927;49.366;8.530;2022-12-18T10:55:58;-3.40;1.00
5802;DHT22;2927;49.366;8.530;2022-12-18T10:58:29;-3.40;1.00
5802;DHT22;2927;49.366;8.530;2022-12-18T11:08:35;-3.20;1.00
5802;DHT22;2927;49.366;8.530;2022-12-18T11:11:01;-3.20;1.00
5802;DHT22;2927;49.366;8.530;2022-12-18T11:13:29;-3.20;1.00
5802;DHT22;2927;49.366;8.530;2022-12-18T11:15:55;-3.30;1.00
5802;DHT22;2927;49.366;8.530;2022-12-18T11:18:29;-3.30;1.00
5802;DHT22;2927;49.366;8.530;2022-12-18T11:23:32;-3.00;1.00
5802;DHT22;2927;49.366;8.530;2022-12-18T11:26:02;-3.00;1.00
5802;DHT22;2927;49.366;8.530;2022-12-18T11:28:35;-3.10;1.00
5802;DHT22;2927;49.366;8.530;2022-12-18T11:31:24;-3.20;1.00
5802;DHT22;2927;49.366;8.530;2022-12-18T11:36:29;-3.10;1.00
5802;DHT22;2927;49.366;8.530;2022-12-18T11:39:00;-3.00;1.00
5802;DHT22;2927;49.366;8.530;2022-12-18T11:41:39;-2.90;1.00
5802;DHT22;2927;49.366;8.530;2022-12-18T11:44:35;-2.80;1.00
5802;DHT22;2927;49.366;8.530;2022-12-18T11:47:08;-2.70;1.00
5802;DHT22;2927;49.366;8.530;2022-12-18T11:49:36;-2.70;1.00
5802;DHT22;2927;49.366;8.530;2022-12-18T11:52:08;-2.70;1.00
5802;DHT22;2927;49.366;8.530;2022-12-18T11:54:35;-2.80;1.00
5802;DHT22;2927;49.366;8.530;2022-12-18T12:05:04;-2.50;1.00
5802;DHT22;2927;49.366;8.530;2022-12-18T12:18:47;-2.40;1.00
5802;DHT22;2927;49.366;8.530;2022-12-18T12:29:54;-2.30;1.00
5802;DHT22;2927;49.366;8.530;2022-12-18T12:40:35;-2.10;1.00
5802;DHT22;2927;49.366;8.530;2022-12-18T12:43:21;-2.10;1.00
5802;DHT22;2927;49.366;8.530;2022-12-18T12:48:27;-2.10;1.00
5802;DHT22;2927;49.366;8.530;2022-12-18T12:50:57;-2.20;1.00
5802;DHT22;2927;49.366;8.530;2022-12-18T12:53:34;-2.20;1.00
5802;DHT22;2927;49.366;8.530;2022-12-18T12:56:01;-2.00;1.00
5802;DHT22;2927;49.366;8.530;2022-12-18T13:04:02;-2.00;1.00
5802;DHT22;2927;49.366;8.530;2022-12-18T13:06:32;-1.90;1.00
5802;DHT22;2927;49.366;8.530;2022-12-18T13:09:00;-1.90;1.00
5802;DHT22;2927;49.366;8.530;2022-12-18T13:11:38;-1.70;1.00
5802;DHT22;2927;49.366;8.530;2022-12-18T13:14:52;-1.70;1.00
5802;DHT22;2927;49.366;8.530;2022-12-18T13:20:06;-1.70;99.90
5802;DHT22;2927;49.366;8.530;2022-12-18T13:22:39;-1.70;99.90
5802;DHT22;2927;49.366;8.530;2022-12-18T13:25:28;-1.60;99.90
5802;DHT22;2927;49.366;8.530;2022-12-18T13:28:10;-1.60;99.90
5802;DHT22;2927;49.366;8.530;2022-12-18T13:30:45;-1.60;99.90
5802;DHT22;2927;49.366;8.530;2022-12-18T13:46:47;-1.80;1.00
5802;DHT22;2927;49.366;8.530;2022-12-18T13:51:42;-1.80;99.90
5802;DHT22;2927;49.366;8.530;2022-12-18T13:54:19;-1.80;1.00
5802;DHT22;2927;49.366;8.530;2022-12-18T13:56:46;-1.80;99.90
5802;DHT22;2927;49.366;8.530;2022-12-18T14:01:57;-2.00;1.00
5802;DHT22;2927;49.366;8.530;2022-12-18T14:04:35;-1.90;1.00
5802;DHT22;2927;49.366;8.530;2022-12-18T14:07:07;-2.00;1.00
5802;DHT22;2927;49.366;8.530;2022-12-18T14:09:40;-2.00;1.00
5802;DHT22;2927;49.366;8.530;2022-12-18T14:12:21;-2.00;1.00
5802;DHT22;2927;49.366;8.530;2022-12-18T14:15:17;-2.10;1.00
5802;DHT22;2927;49.366;8.530;2022-12-18T14:17:46;-2.10;1.00
5802;DHT22;2927;49.366;8.530;2022-12-18T14:20:14;-2.20;1.00
5802;DHT22;2927;49.366;8.530;2022-12-18T14:22:46;-2.20;1.00
5802;DHT22;2927;49.366;8.530;2022-12-18T14:27:41;-2.10;1.00
5802;DHT22;2927;49.366;8.530;2022-12-18T14:30:25;-2.20;1.00
5802;DHT22;2927;49.366;8.530;2022-12-18T14:35:35;-2.00;1.00
5802;DHT22;2927;49.366;8.530;2022-12-18T14:38:20;-2.00;1.00
5802;DHT22;2927;49.366;8.530;2022-12-18T14:40:46;-2.10;1.00
5802;DHT22;2927;49.366;8.530;2022-12-18T14:43:12;-2.10;1.00
5802;DHT22;2927;49.366;8.530;2022-12-18T14:45:39;-2.20;1.00
5802;DHT22;2927;49.366;8.530;2022-12-18T14:48:16;-2.20;1.00
5802;DHT22;2927;49.366;8.530;2022-12-18T14:50:43;-2.30;1.00
5802;DHT22;2927;49.366;8.530;2022-12-18T14:53:20;-2.30;1.00
5802;DHT22;2927;49.366;8.530;2022-12-18T14:55:48;-2.40;1.00
5802;DHT22;2927;49.366;8.530;2022-12-18T14:58:16;-2.40;1.00
5802;DHT22;2927;49.366;8.530;2022-12-18T15:00:43;-2.40;1.00
5802;DHT22;2927;49.366;8.530;2022-12-18T15:03:09;-2.40;1.00
5802;DHT22;2927;49.366;8.530;2022-12-18T15:05:35;-2.30;1.00
5802;DHT22;2927;49.366;8.530;2022-12-18T15:08:01;-2.20;1.00
5802;DHT22;2927;49.366;8.530;2022-12-18T15:10:30;-2.30;1.00
5802;DHT22;2927;49.366;8.530;2022-12-18T15:20:58;-2.40;1.00
5802;DHT22;2927;49.366;8.530;2022-12-18T15:26:07;-2.50;1.00
5802;DHT22;2927;49.366;8.530;2022-12-18T15:36:20;-2.60;1.00
5802;DHT22;2927;49.366;8.530;2022-12-18T15:38:54;-2.50;1.00
5802;DHT22;2927;49.366;8.530;2022-12-18T15:41:21;-2.60;1.00
5802;DHT22;2927;49.366;8.530;2022-12-18T15:43:51;-2.60;1.00
5802;DHT22;2927;49.366;8.530;2022-12-18T15:46:22;-2.70;1.00
5802;DHT22;2927;49.366;8.530;2022-12-18T15:48:50;-2.70;1.00
5802;DHT22;2927;49.366;8.530;2022-12-18T15:51:18;-2.70;1.00
5802;DHT22;2927;49.366;8.530;2022-12-18T15:53:46;-2.70;1.00
5802;DHT22;2927;49.366;8.530;2022-12-18T15:56:13;-2.60;1.00
5802;DHT22;2927;49.366;8.530;2022-12-18T15:58:58;-2.60;1.00
5802;DHT22;2927;49.366;8.530;2022-12-18T16:01:28;-2.60;1.00
5802;DHT22;2927;49.366;8.530;2022-12-18T16:03:54;-2.50;1.00
5802;DHT22;2927;49.366;8.530;2022-12-18T16:06:21;-2.50;1.00
5802;DHT22;2927;49.366;8.530;2022-12-18T16:08:47;-2.50;1.00
5802;DHT22;2927;49.366;8.530;2022-12-18T16:14:20;-2.60;1.00
5802;DHT22;2927;49.366;8.530;2022-12-18T16:16:47;-2.60;1.00
5802;DHT22;2927;49.366;8.530;2022-12-18T16:19:13;-2.50;1.00
5802;DHT22;2927;49.366;8.530;2022-12-18T16:21:38;-2.60;1.00
5802;DHT22;2927;49.366;8.530;2022-12-18T16:24:04;-2.60;1.00
5802;DHT22;2927;49.366;8.530;2022-12-18T16:26:30;-2.50;1.00
5802;DHT22;2927;49.366;8.530;2022-12-18T16:28:55;-2.40;1.00
5802;DHT22;2927;49.366;8.530;2022-12-18T16:31:21;-2.30;1.00
5802;DHT22;2927;49.366;8.530;2022-12-18T16:33:46;-2.20;1.00
5802;DHT22;2927;49.366;8.530;2022-12-18T16:36:12;-2.10;1.00
5802;DHT22;2927;49.366;8.530;2022-12-18T16:38:38;-2.20;1.00
5802;DHT22;2927;49.366;8.530;2022-12-18T16:41:19;-2.30;1.00
5802;DHT22;2927;49.366;8.530;2022-12-18T16:43:56;-2.20;1.00
5802;DHT22;2927;49.366;8.530;2022-12-18T16:46:22;-2.10;1.00
5802;DHT22;2927;49.366;8.530;2022-12-18T16:48:48;-2.20;1.00
5802;DHT22;2927;49.366;8.530;2022-12-18T16:51:13;-2.00;1.00
5802;DHT22;2927;49.366;8.530;2022-12-18T16:53:39;-2.00;1.00
5802;DHT22;2927;49.366;8.530;2022-12-18T16:56:04;-2.00;1.00
5802;DHT22;2927;49.366;8.530;2022-12-18T16:58:30;-2.00;1.00
5802;DHT22;2927;49.366;8.530;2022-12-18T17:00:55;-2.00;1.00
5802;DHT22;2927;49.366;8.530;2022-12-18T17:03:21;-1.90;1.00
5802;DHT22;2927;49.366;8.530;2022-12-18T17:05:47;-1.90;1.00
5802;DHT22;2927;49.366;8.530;2022-12-18T17:08:12;-1.90;1.00
5802;DHT22;2927;49.366;8.530;2022-12-18T17:10:38;-1.80;1.00
5802;DHT22;2927;49.366;8.530;2022-12-18T17:13:03;-1.90;1.00
5802;DHT22;2927;49.366;8.530;2022-12-18T17:15:29;-1.90;1.00
5802;DHT22;2927;49.366;8.530;2022-12-18T17:17:55;-2.00;1.00
5802;DHT22;2927;49.366;8.530;2022-12-18T17:20:20;-2.00;1.00
5802;DHT22;2927;49.366;8.530;2022-12-18T17:22:46;-1.90;1.00
5802;DHT22;2927;49.366;8.530;2022-12-18T17:25:12;-1.90;1.00
5802;DHT22;2927;49.366;8.530;2022-12-18T17:27:37;-2.00;1.00
5802;DHT22;2927;49.366;8.530;2022-12-18T17:30:05;-2.00;1.00
5802;DHT22;2927;49.366;8.530;2022-12-18T17:32:30;-1.80;1.00
5802;DHT22;2927;49.366;8.530;2022-12-18T17:34:56;-1.80;1.00
5802;DHT22;2927;49.366;8.530;2022-12-18T17:37:21;-1.80;1.00
5802;DHT22;2927;49.366;8.530;2022-12-18T17:39:47;-1.80;1.00
5802;DHT22;2927;49.366;8.530;2022-12-18T17:42:12;-1.80;1.00
5802;DHT22;2927;49.366;8.530;2022-12-18T17:44:40;-1.80;1.00
5802;DHT22;2927;49.366;8.530;2022-12-18T17:47:06;-1.80;1.00
5802;DHT22;2927;49.366;8.530;2022-12-18T17:49:34;-1.90;1.00
5802;DHT22;2927;49.366;8.530;2022-12-18T17:51:59;-1.90;1.00
5802;DHT22;2927;49.366;8.530;2022-12-18T17:54:25;-1.90;1.00
5802;DHT22;2927;49.366;8.530;2022-12-18T17:56:50;-1.90;1.00
5802;DHT22;2927;49.366;8.530;2022-12-18T17:59:16;-1.90;1.00
5802;DHT22;2927;49.366;8.530;2022-12-18T18:01:42;-1.80;1.00
5802;DHT22;2927;49.366;8.530;2022-12-18T18:04:07;-1.70;1.00
5802;DHT22;2927;49.366;8.530;2022-12-18T18:06:33;-1.70;1.00
5802;DHT22;2927;49.366;8.530;2022-12-18T18:08:58;-1.70;1.00
5802;DHT22;2927;49.366;8.530;2022-12-18T18:11:24;-1.70;1.00
5802;DHT22;2927;49.366;8.530;2022-12-18T18:14:18;-1.70;1.00
5802;DHT22;2927;49.366;8.530;2022-12-18T18:16:47;-1.70;1.00
5802;DHT22;2927;49.366;8.530;2022-12-18T18:19:18;-1.70;1.00
5802;DHT22;2927;49.366;8.530;2022-12-18T18:21:46;-1.70;1.00
5802;DHT22;2927;49.366;8.530;2022-12-18T18:24:13;-1.70;1.00
5802;DHT22;2927;49.366;8.530;2022-12-18T18:26:39;-1.70;1.00
5802;DHT22;2927;49.366;8.530;2022-12-18T18:29:12;-1.70;1.00
5802;DHT22;2927;49.366;8.530;2022-12-18T18:31:38;-1.70;1.00
5802;DHT22;2927;49.366;8.530;2022-12-18T18:34:03;-1.80;1.00
5802;DHT22;2927;49.366;8.530;2022-12-18T18:36:29;-1.80;1.00
5802;DHT22;2927;49.366;8.530;2022-12-18T18:38:56;-1.80;1.00
5802;DHT22;2927;49.366;8.530;2022-12-18T18:41:22;-1.80;1.00
5802;DHT22;2927;49.366;8.530;2022-12-18T18:43:52;-1.80;1.00